createdAt,value
2018-03-14T00:00:00.649Z,1013.27
2018-03-14T00:01:01.227Z,1013.25
2018-03-14T00:02:01.854Z,1013.16
2018-03-14T00:03:02.433Z,1013.18
2018-03-14T00:04:03.010Z,1013.03
2018-03-14T00:05:03.586Z,1013.17
2018-03-14T00:06:04.163Z,1013.10
2018-03-14T00:07:04.741Z,1013.10
2018-03-14T00:08:05.319Z,1013.10
2018-03-14T00:09:05.898Z,1013.15
2018-03-14T00:10:06.518Z,1013.05
2018-03-14T00:11:07.145Z,1013.11
2018-03-14T00:12:07.773Z,1013.14
2018-03-14T00:13:08.351Z,1013.09
2018-03-14T00:14:08.929Z,1013.09
2018-03-14T00:15:09.507Z,1013.04
2018-03-14T00:16:10.084Z,1013.03
2018-03-14T00:17:10.663Z,1012.93
2018-03-14T00:18:11.352Z,1013.01
2018-03-14T00:19:11.955Z,1013.10
2018-03-14T00:20:12.535Z,1012.97
2018-03-14T00:21:13.113Z,1012.95
2018-03-14T00:22:13.691Z,1012.86
2018-03-14T00:23:14.272Z,1012.87
2018-03-14T00:24:14.846Z,1012.82
2018-03-14T00:25:15.423Z,1012.86
2018-03-14T00:26:16.001Z,1012.78
2018-03-14T00:27:16.628Z,1012.79
2018-03-14T00:28:17.357Z,1012.74
2018-03-14T00:29:17.961Z,1012.84
2018-03-14T00:30:18.764Z,1012.80
2018-03-14T00:31:19.341Z,1012.76
2018-03-14T00:32:19.970Z,1012.77
2018-03-14T00:33:20.547Z,1012.65
2018-03-14T00:34:21.126Z,1012.70
2018-03-14T00:35:21.705Z,1012.73
2018-03-14T00:36:22.282Z,1012.71
2018-03-14T00:37:22.860Z,1012.63
2018-03-14T00:38:23.486Z,1012.72
2018-03-14T00:39:24.061Z,1012.72
2018-03-14T00:40:24.638Z,1012.65
2018-03-14T00:41:25.216Z,1012.66
2018-03-14T00:42:25.796Z,1012.65
2018-03-14T00:43:26.374Z,1012.65
2018-03-14T00:44:26.952Z,1012.70
2018-03-14T00:45:27.529Z,1012.69
2018-03-14T00:46:28.105Z,1012.62
2018-03-14T00:47:28.684Z,1012.59
2018-03-14T00:48:29.312Z,1012.53
2018-03-14T00:49:29.939Z,1012.55
2018-03-14T00:50:30.519Z,1012.52
2018-03-14T00:51:31.098Z,1012.48
2018-03-14T00:52:31.676Z,1012.50
2018-03-14T00:53:32.304Z,1012.48
2018-03-14T00:54:32.885Z,1012.44
2018-03-14T00:55:33.461Z,1012.44
2018-03-14T00:56:34.038Z,1012.39
2018-03-14T00:57:34.616Z,1012.43
2018-03-14T00:58:35.192Z,1012.41
2018-03-14T00:59:35.771Z,1012.45
2018-03-14T01:00:36.346Z,1012.43
2018-03-14T01:01:36.922Z,1012.43
2018-03-14T01:02:37.500Z,1012.42
2018-03-14T01:03:38.081Z,1012.42
2018-03-14T01:04:38.660Z,1012.38
2018-03-14T01:05:39.239Z,1012.36
2018-03-14T01:06:39.865Z,1012.31
2018-03-14T01:07:40.441Z,1012.25
2018-03-14T01:08:41.023Z,1012.23
2018-03-14T01:09:41.648Z,1012.20
2018-03-14T01:10:42.224Z,1012.18
2018-03-14T01:11:42.802Z,1012.17
2018-03-14T01:12:43.428Z,1012.21
2018-03-14T01:13:44.006Z,1012.29
2018-03-14T01:14:44.583Z,1012.30
2018-03-14T01:15:45.162Z,1012.24
2018-03-14T01:16:45.740Z,1012.29
2018-03-14T01:17:46.318Z,1012.31
2018-03-14T01:18:46.896Z,1012.28
2018-03-14T01:19:47.474Z,1012.25
2018-03-14T01:20:48.050Z,1012.24
2018-03-14T01:21:48.627Z,1012.23
2018-03-14T01:22:49.253Z,1012.23
2018-03-14T01:23:49.832Z,1012.18
2018-03-14T01:24:50.415Z,1012.17
2018-03-14T01:25:50.990Z,1012.17
2018-03-14T01:26:51.568Z,1012.18
2018-03-14T01:27:52.195Z,1012.05
2018-03-14T01:28:52.774Z,1012.08
2018-03-14T01:29:53.404Z,1011.96
2018-03-14T01:30:53.981Z,1011.95
2018-03-14T01:31:54.609Z,1011.88
2018-03-14T01:32:55.241Z,1011.95
2018-03-14T01:33:55.814Z,1011.87
2018-03-14T01:34:56.392Z,1011.84
2018-03-14T01:35:56.966Z,1011.77
2018-03-14T01:36:57.545Z,1011.72
2018-03-14T01:37:58.174Z,1011.70
2018-03-14T01:38:58.749Z,1011.70
2018-03-14T01:39:59.376Z,1011.55
2018-03-14T01:40:59.958Z,1011.62
2018-03-14T01:42:00.536Z,1011.58
2018-03-14T01:43:01.166Z,1011.52
2018-03-14T01:44:01.746Z,1011.61
2018-03-14T01:45:02.366Z,1011.60
2018-03-14T01:46:02.951Z,1011.55
2018-03-14T01:47:03.571Z,1011.54
2018-03-14T01:48:04.148Z,1011.52
2018-03-14T01:49:04.725Z,1011.51
2018-03-14T01:50:05.302Z,1011.41
2018-03-14T01:51:05.877Z,1011.31
2018-03-14T01:52:06.456Z,1011.37
2018-03-14T01:53:07.034Z,1011.34
2018-03-14T01:54:07.611Z,1011.44
2018-03-14T01:55:08.190Z,1011.35
2018-03-14T01:56:08.816Z,1011.42
2018-03-14T01:57:09.394Z,1011.41
2018-03-14T01:58:09.971Z,1011.43
2018-03-14T01:59:10.550Z,1011.42
2018-03-14T02:00:11.181Z,1011.37
2018-03-14T02:01:11.796Z,1011.50
2018-03-14T02:02:12.425Z,1011.42
2018-03-14T02:03:13.006Z,1011.45
2018-03-14T02:04:13.583Z,1011.36
2018-03-14T02:05:14.162Z,1011.30
2018-03-14T02:06:14.738Z,1011.27
2018-03-14T02:07:15.316Z,1011.21
2018-03-14T02:08:15.892Z,1011.21
2018-03-14T02:09:16.471Z,1011.18
2018-03-14T02:10:17.048Z,1011.09
2018-03-14T02:11:17.675Z,1011.06
2018-03-14T02:12:18.261Z,1010.99
2018-03-14T02:13:18.833Z,1010.98
2018-03-14T02:14:19.411Z,1010.93
2018-03-14T02:15:19.985Z,1010.88
2018-03-14T02:16:20.561Z,1010.68
2018-03-14T02:17:21.293Z,1010.77
2018-03-14T02:18:21.865Z,1010.70
2018-03-14T02:19:22.441Z,1010.71
2018-03-14T02:20:23.019Z,1010.66
2018-03-14T02:21:23.595Z,1010.67
2018-03-14T02:22:24.262Z,1010.68
2018-03-14T02:23:24.838Z,1010.71
2018-03-14T02:24:25.417Z,1010.61
2018-03-14T02:25:25.992Z,1010.56
2018-03-14T02:26:26.620Z,1010.59
2018-03-14T02:27:27.197Z,1010.50
2018-03-14T02:28:27.775Z,1010.47
2018-03-14T02:29:28.354Z,1010.46
2018-03-14T02:30:28.937Z,1010.51
2018-03-14T02:31:29.514Z,1010.38
2018-03-14T02:32:30.091Z,1010.34
2018-03-14T02:33:30.669Z,1010.45
2018-03-14T02:34:31.247Z,1010.45
2018-03-14T02:35:31.826Z,1010.28
2018-03-14T02:36:32.454Z,1010.33
2018-03-14T02:37:33.032Z,1010.24
2018-03-14T02:38:33.608Z,1010.27
2018-03-14T02:39:34.184Z,1010.31
2018-03-14T02:40:34.762Z,1010.29
2018-03-14T02:41:35.338Z,1010.17
2018-03-14T02:42:35.968Z,1010.29
2018-03-14T02:43:36.586Z,1010.11
2018-03-14T02:44:37.165Z,1010.06
2018-03-14T02:45:37.743Z,1010.09
2018-03-14T02:46:38.318Z,1010.06
2018-03-14T02:47:38.946Z,1009.96
2018-03-14T02:48:39.574Z,1009.93
2018-03-14T02:49:40.150Z,1009.94
2018-03-14T02:50:40.728Z,1009.93
2018-03-14T02:51:41.305Z,1009.88
2018-03-14T02:52:41.883Z,1009.85
2018-03-14T02:53:42.459Z,1009.81
2018-03-14T02:54:43.037Z,1009.76
2018-03-14T02:55:43.668Z,1009.75
2018-03-14T02:56:44.242Z,1009.69
2018-03-14T02:57:44.819Z,1009.63
2018-03-14T02:58:45.402Z,1009.67
2018-03-14T02:59:46.030Z,1009.62
2018-03-14T03:00:46.610Z,1009.66
2018-03-14T03:01:47.185Z,1009.63
2018-03-14T03:02:47.764Z,1009.66
2018-03-14T03:03:48.487Z,1009.64
2018-03-14T03:04:49.064Z,1009.61
2018-03-14T03:05:49.642Z,1009.57
2018-03-14T03:06:50.218Z,1009.51
2018-03-14T03:07:50.793Z,1009.46
2018-03-14T03:08:51.370Z,1009.44
2018-03-14T03:09:51.947Z,1009.51
2018-03-14T03:10:52.527Z,1009.48
2018-03-14T03:11:53.104Z,1009.51
2018-03-14T03:12:53.733Z,1009.62
2018-03-14T03:13:54.310Z,1009.50
2018-03-14T03:14:54.935Z,1009.50
2018-03-14T03:15:55.515Z,1009.51
2018-03-14T03:16:56.090Z,1009.42
2018-03-14T03:17:56.674Z,1009.32
2018-03-14T03:18:57.293Z,1009.41
2018-03-14T03:19:57.868Z,1009.39
2018-03-14T03:20:58.444Z,1009.28
2018-03-14T03:21:59.020Z,1009.40
2018-03-14T03:22:59.600Z,1009.35
2018-03-14T03:24:00.178Z,1009.37
2018-03-14T03:25:00.757Z,1009.30
2018-03-14T03:26:01.388Z,1009.33
2018-03-14T03:27:02.011Z,1009.32
2018-03-14T03:28:02.586Z,1009.30
2018-03-14T03:29:03.161Z,1009.20
2018-03-14T03:30:03.791Z,1009.22
2018-03-14T03:31:04.368Z,1009.17
2018-03-14T03:32:04.943Z,1009.15
2018-03-14T03:33:05.570Z,1009.15
2018-03-14T03:34:06.146Z,1009.21
2018-03-14T03:35:06.727Z,1009.26
2018-03-14T03:36:07.301Z,1009.22
2018-03-14T03:37:07.882Z,1009.10
2018-03-14T03:38:08.458Z,1009.16
2018-03-14T03:39:09.034Z,1009.08
2018-03-14T03:40:09.610Z,1009.07
2018-03-14T03:41:10.187Z,1009.02
2018-03-14T03:42:10.913Z,1009.10
2018-03-14T03:43:11.496Z,1009.04
2018-03-14T03:44:12.068Z,1009.09
2018-03-14T03:45:12.647Z,1009.10
2018-03-14T03:46:13.225Z,1009.09
2018-03-14T03:47:13.807Z,1009.05
2018-03-14T03:48:14.381Z,1009.13
2018-03-14T03:49:14.958Z,1009.10
2018-03-14T03:50:15.589Z,1009.17
2018-03-14T03:51:16.213Z,1009.19
2018-03-14T03:52:16.791Z,1009.10
2018-03-14T03:53:17.370Z,1008.98
2018-03-14T03:54:17.946Z,1009.08
2018-03-14T03:55:18.524Z,1009.12
2018-03-14T03:56:19.103Z,1009.04
2018-03-14T03:57:19.725Z,1009.03
2018-03-14T03:58:20.302Z,1009.03
2018-03-14T03:59:20.881Z,1009.02
2018-03-14T04:00:21.459Z,1009.02
2018-03-14T04:01:22.036Z,1009.02
2018-03-14T04:02:22.610Z,1008.93
2018-03-14T04:03:23.237Z,1008.97
2018-03-14T04:04:23.814Z,1008.85
2018-03-14T04:05:24.391Z,1008.95
2018-03-14T04:06:25.020Z,1008.84
2018-03-14T04:07:25.602Z,1008.93
2018-03-14T04:08:26.224Z,1008.88
2018-03-14T04:09:26.800Z,1008.97
2018-03-14T04:10:27.426Z,1008.84
2018-03-14T04:11:28.008Z,1008.80
2018-03-14T04:12:28.583Z,1008.83
2018-03-14T04:13:29.159Z,1008.75
2018-03-14T04:14:29.789Z,1008.84
2018-03-14T04:15:30.362Z,1008.75
2018-03-14T04:16:30.941Z,1008.73
2018-03-14T04:17:31.522Z,1008.54
2018-03-14T04:18:32.147Z,1008.58
2018-03-14T04:19:32.767Z,1008.43
2018-03-14T04:20:33.349Z,1008.49
2018-03-14T04:21:33.930Z,1008.49
2018-03-14T04:22:34.499Z,1008.42
2018-03-14T04:23:35.077Z,1008.37
2018-03-14T04:24:35.654Z,1008.54
2018-03-14T04:25:36.284Z,1008.50
2018-03-14T04:26:36.910Z,1008.53
2018-03-14T04:27:37.488Z,1008.38
2018-03-14T04:28:38.114Z,1008.27
2018-03-14T04:29:38.691Z,1008.36
2018-03-14T04:30:39.268Z,1008.27
2018-03-14T04:31:39.845Z,1008.14
2018-03-14T04:32:40.424Z,1008.07
2018-03-14T04:33:41.000Z,1008.05
2018-03-14T04:34:41.578Z,1008.14
2018-03-14T04:35:42.157Z,1008.03
2018-03-14T04:36:42.735Z,1008.06
2018-03-14T04:37:43.312Z,1008.06
2018-03-14T04:38:43.889Z,1008.04
2018-03-14T04:39:44.466Z,1007.99
2018-03-14T04:40:45.044Z,1007.93
2018-03-14T04:41:45.669Z,1007.92
2018-03-14T04:42:46.246Z,1007.92
2018-03-14T04:43:46.824Z,1008.03
2018-03-14T04:44:47.405Z,1007.85
2018-03-14T04:45:47.982Z,1007.90
2018-03-14T04:46:48.558Z,1007.70
2018-03-14T04:47:49.137Z,1007.78
2018-03-14T04:48:49.762Z,1007.76
2018-03-14T04:49:50.490Z,1007.80
2018-03-14T04:50:51.069Z,1007.74
2018-03-14T04:51:51.637Z,1007.75
2018-03-14T04:52:52.208Z,1007.71
2018-03-14T04:53:52.777Z,1007.66
2018-03-14T04:54:53.348Z,1007.67
2018-03-14T04:55:53.920Z,1007.64
2018-03-14T04:56:54.491Z,1007.62
2018-03-14T04:57:55.062Z,1007.62
2018-03-14T04:58:55.632Z,1007.61
2018-03-14T04:59:56.208Z,1007.48
2018-03-14T05:00:56.825Z,1007.55
2018-03-14T05:01:57.399Z,1007.51
2018-03-14T05:02:57.970Z,1007.52
2018-03-14T05:03:58.592Z,1007.48
2018-03-14T05:04:59.169Z,1007.53
2018-03-14T05:05:59.736Z,1007.62
2018-03-14T05:07:00.312Z,1007.56
2018-03-14T05:08:00.933Z,1007.66
2018-03-14T05:09:01.505Z,1007.50
2018-03-14T05:10:02.074Z,1007.59
2018-03-14T05:11:02.645Z,1007.64
2018-03-14T05:12:03.268Z,1007.64
2018-03-14T05:13:03.841Z,1007.57
2018-03-14T05:14:04.413Z,1007.48
2018-03-14T05:15:04.986Z,1007.53
2018-03-14T05:16:05.557Z,1007.51
2018-03-14T05:17:06.132Z,1007.48
2018-03-14T05:18:06.709Z,1007.51
2018-03-14T05:19:07.277Z,1007.50
2018-03-14T05:20:07.850Z,1007.48
2018-03-14T05:21:08.470Z,1007.48
2018-03-14T05:22:09.043Z,1007.48
2018-03-14T05:23:09.666Z,1007.41
2018-03-14T05:24:10.240Z,1007.41
2018-03-14T05:25:10.812Z,1007.34
2018-03-14T05:26:11.386Z,1007.40
2018-03-14T05:27:12.007Z,1007.41
2018-03-14T05:28:12.579Z,1007.38
2018-03-14T05:29:13.154Z,1007.33
2018-03-14T05:30:13.726Z,1007.30
2018-03-14T05:31:14.298Z,1007.27
2018-03-14T05:32:14.921Z,1007.31
2018-03-14T05:33:15.494Z,1007.26
2018-03-14T05:34:16.069Z,1007.23
2018-03-14T05:35:16.642Z,1007.23
2018-03-14T05:36:17.213Z,1007.18
2018-03-14T05:37:17.786Z,1007.24
2018-03-14T05:38:18.359Z,1007.18
2018-03-14T05:39:18.933Z,1007.16
2018-03-14T05:40:19.556Z,1007.09
2018-03-14T05:41:20.208Z,1007.03
2018-03-14T05:42:20.738Z,1007.00
2018-03-14T05:43:21.365Z,1006.99
2018-03-14T05:44:21.934Z,1006.90
2018-03-14T05:45:22.506Z,1006.98
2018-03-14T05:46:23.126Z,1006.89
2018-03-14T05:47:23.699Z,1006.90
2018-03-14T05:48:24.273Z,1006.90
2018-03-14T05:49:24.847Z,1006.86
2018-03-14T05:50:25.418Z,1006.93
2018-03-14T05:51:25.988Z,1006.89
2018-03-14T05:52:26.562Z,1006.83
2018-03-14T05:53:27.135Z,1006.89
2018-03-14T05:54:27.707Z,1006.77
2018-03-14T05:55:28.280Z,1006.77
2018-03-14T05:56:28.855Z,1006.76
2018-03-14T05:57:29.429Z,1006.73
2018-03-14T05:58:30.002Z,1006.69
2018-03-14T05:59:30.623Z,1006.69
2018-03-14T06:00:31.197Z,1006.58
2018-03-14T06:01:31.771Z,1006.42
2018-03-14T06:02:32.395Z,1006.44
2018-03-14T06:03:32.965Z,1006.41
2018-03-14T06:04:33.588Z,1006.56
2018-03-14T06:05:34.160Z,1006.53
2018-03-14T06:06:34.732Z,1006.44
2018-03-14T06:07:35.310Z,1006.32
2018-03-14T06:08:35.884Z,1006.25
2018-03-14T06:09:36.453Z,1006.26
2018-03-14T06:10:37.065Z,1006.22
2018-03-14T06:11:37.601Z,1006.17
2018-03-14T06:12:38.176Z,1006.17
2018-03-14T06:13:38.797Z,1006.05
2018-03-14T06:14:39.370Z,1006.00
2018-03-14T06:15:39.991Z,1006.05
2018-03-14T06:16:40.564Z,1006.07
2018-03-14T06:17:41.140Z,1006.04
2018-03-14T06:18:41.863Z,1006.00
2018-03-14T06:19:42.436Z,1006.01
2018-03-14T06:20:43.058Z,1005.94
2018-03-14T06:21:43.628Z,1005.82
2018-03-14T06:22:44.200Z,1005.86
2018-03-14T06:23:44.823Z,1005.81
2018-03-14T06:24:45.402Z,1005.85
2018-03-14T06:25:45.973Z,1005.78
2018-03-14T06:26:46.544Z,1005.68
2018-03-14T06:27:47.165Z,1005.49
2018-03-14T06:28:47.738Z,1005.58
2018-03-14T06:29:48.318Z,1005.47
2018-03-14T06:30:48.934Z,1005.53
2018-03-14T06:31:49.554Z,1005.47
2018-03-14T06:32:50.228Z,1005.52
2018-03-14T06:33:50.800Z,1005.44
2018-03-14T06:34:51.375Z,1005.43
2018-03-14T06:35:51.947Z,1005.46
2018-03-14T06:36:52.519Z,1005.47
2018-03-14T06:37:53.093Z,1005.56
2018-03-14T06:38:53.667Z,1005.59
2018-03-14T06:39:54.238Z,1005.55
2018-03-14T06:40:54.812Z,1005.63
2018-03-14T06:41:55.384Z,1005.45
2018-03-14T06:42:55.959Z,1005.50
2018-03-14T06:43:56.531Z,1005.57
2018-03-14T06:44:57.103Z,1005.61
2018-03-14T06:45:57.677Z,1005.45
2018-03-14T06:46:58.250Z,1005.49
2018-03-14T06:47:58.821Z,1005.45
2018-03-14T06:48:59.446Z,1005.50
2018-03-14T06:50:00.022Z,1005.56
2018-03-14T06:51:00.650Z,1005.59
2018-03-14T06:52:01.258Z,1005.42
2018-03-14T06:53:01.832Z,1005.45
2018-03-14T06:54:02.406Z,1005.36
2018-03-14T06:55:03.130Z,1005.18
2018-03-14T06:56:03.743Z,1005.20
2018-03-14T06:57:04.318Z,1005.18
2018-03-14T06:58:04.892Z,1005.22
2018-03-14T06:59:05.461Z,1005.20
2018-03-14T07:00:06.040Z,1005.32
2018-03-14T07:01:06.611Z,1005.19
2018-03-14T07:02:07.237Z,1005.16
2018-03-14T07:03:07.758Z,1005.24
2018-03-14T07:04:08.334Z,1005.25
2018-03-14T07:05:08.947Z,1005.27
2018-03-14T07:06:09.569Z,1005.18
2018-03-14T07:07:10.142Z,1005.13
2018-03-14T07:08:10.714Z,1005.18
2018-03-14T07:09:11.288Z,1005.13
2018-03-14T07:10:11.858Z,1005.13
2018-03-14T07:11:12.430Z,1005.02
2018-03-14T07:12:13.151Z,1005.02
2018-03-14T07:13:13.727Z,1004.97
2018-03-14T07:14:14.298Z,1004.91
2018-03-14T07:15:14.869Z,1004.90
2018-03-14T07:16:15.444Z,1004.96
2018-03-14T07:17:16.107Z,1004.97
2018-03-14T07:18:16.681Z,1004.94
2018-03-14T07:19:17.258Z,1004.86
2018-03-14T07:20:17.869Z,1004.79
2018-03-14T07:21:18.441Z,1004.88
2018-03-14T07:22:19.016Z,1004.75
2018-03-14T07:23:19.591Z,1004.80
2018-03-14T07:24:20.161Z,1004.83
2018-03-14T07:25:20.787Z,1004.70
2018-03-14T07:26:21.357Z,1004.82
2018-03-14T07:27:21.931Z,1004.87
2018-03-14T07:28:22.508Z,1004.93
2018-03-14T07:29:23.077Z,1005.04
2018-03-14T07:30:23.657Z,1004.93
2018-03-14T07:31:24.374Z,1004.94
2018-03-14T07:32:24.948Z,1004.99
2018-03-14T07:33:25.521Z,1004.95
2018-03-14T07:34:26.091Z,1005.03
2018-03-14T07:35:26.664Z,1005.16
2018-03-14T07:36:27.323Z,1005.18
2018-03-14T07:37:27.851Z,1005.11
2018-03-14T07:38:28.476Z,1005.20
2018-03-14T07:39:29.047Z,1005.14
2018-03-14T07:40:29.621Z,1005.13
2018-03-14T07:41:30.192Z,1005.16
2018-03-14T07:42:30.764Z,1005.04
2018-03-14T07:43:31.336Z,1004.98
2018-03-14T07:44:31.910Z,1005.05
2018-03-14T07:45:32.481Z,1004.98
2018-03-14T07:46:33.102Z,1004.98
2018-03-14T07:47:33.679Z,1004.95
2018-03-14T07:48:34.247Z,1004.84
2018-03-14T07:49:34.820Z,1004.77
2018-03-14T07:50:35.443Z,1004.70
2018-03-14T07:51:36.017Z,1004.76
2018-03-14T07:52:36.592Z,1004.58
2018-03-14T07:53:37.165Z,1004.67
2018-03-14T07:54:37.733Z,1004.72
2018-03-14T07:55:38.346Z,1004.69
2018-03-14T07:56:38.969Z,1004.80
2018-03-14T07:57:39.542Z,1004.65
2018-03-14T07:58:40.115Z,1004.75
2018-03-14T07:59:40.688Z,1004.58
2018-03-14T08:00:41.260Z,1004.58
2018-03-14T08:01:41.834Z,1004.68
2018-03-14T08:02:42.405Z,1004.66
2018-03-14T08:03:42.977Z,1004.64
2018-03-14T08:04:43.549Z,1004.63
2018-03-14T08:05:44.204Z,1004.58
2018-03-14T08:06:44.795Z,1004.61
2018-03-14T08:07:45.387Z,1004.65
2018-03-14T08:08:45.941Z,1004.58
2018-03-14T08:09:46.563Z,1004.70
2018-03-14T08:10:47.133Z,1004.54
2018-03-14T08:11:47.704Z,1004.50
2018-03-14T08:12:48.277Z,1004.40
2018-03-14T08:13:49.081Z,1004.43
2018-03-14T08:14:49.471Z,1004.31
2018-03-14T08:15:50.044Z,1004.47
2018-03-14T08:16:50.616Z,1004.49
2018-03-14T08:17:51.188Z,1004.25
2018-03-14T08:18:51.761Z,1004.27
2018-03-14T08:19:52.334Z,1004.30
2018-03-14T08:20:52.909Z,1004.43
2018-03-14T08:21:53.481Z,1004.45
2018-03-14T08:22:54.054Z,1004.29
2018-03-14T08:23:54.628Z,1004.42
2018-03-14T08:24:55.201Z,1004.32
2018-03-14T08:25:55.783Z,1004.33
2018-03-14T08:26:56.389Z,1004.29
2018-03-14T08:27:57.012Z,1004.33
2018-03-14T08:28:57.585Z,1004.38
2018-03-14T08:29:58.360Z,1004.18
2018-03-14T08:30:58.932Z,1004.11
2018-03-14T08:31:59.507Z,1004.14
2018-03-14T08:33:00.129Z,1004.13
2018-03-14T08:34:00.701Z,1004.07
2018-03-14T08:35:01.276Z,1004.04
2018-03-14T08:36:01.847Z,1004.00
2018-03-14T08:37:02.421Z,1004.06
2018-03-14T08:38:02.989Z,1003.95
2018-03-14T08:39:03.562Z,1003.70
2018-03-14T08:40:04.135Z,1003.75
2018-03-14T08:41:04.707Z,1003.81
2018-03-14T08:42:05.279Z,1003.81
2018-03-14T08:43:05.853Z,1003.74
2018-03-14T08:44:06.429Z,1003.95
2018-03-14T08:45:07.046Z,1003.81
2018-03-14T08:46:07.618Z,1003.85
2018-03-14T08:47:08.190Z,1003.77
2018-03-14T08:48:08.765Z,1003.85
2018-03-14T08:49:09.386Z,1003.83
2018-03-14T08:50:09.958Z,1003.82
2018-03-14T08:51:10.579Z,1003.80
2018-03-14T08:52:11.151Z,1003.79
2018-03-14T08:53:11.748Z,1003.72
2018-03-14T08:54:12.449Z,1003.76
2018-03-14T08:55:13.020Z,1003.63
2018-03-14T08:56:13.592Z,1003.68
2018-03-14T08:57:14.168Z,1003.56
2018-03-14T08:58:14.786Z,1003.42
2018-03-14T08:59:15.356Z,1003.42
2018-03-14T09:00:15.929Z,1003.43
2018-03-14T09:01:16.501Z,1003.49
2018-03-14T09:02:17.076Z,1003.31
2018-03-14T09:03:17.646Z,1003.20
2018-03-14T09:04:18.217Z,1003.35
2018-03-14T09:05:18.843Z,1003.32
2018-03-14T09:06:19.463Z,1003.32
2018-03-14T09:07:20.042Z,1003.37
2018-03-14T09:08:20.611Z,1003.41
2018-03-14T09:09:21.224Z,1003.37
2018-03-14T09:10:21.798Z,1003.37
2018-03-14T09:11:22.520Z,1003.34
2018-03-14T09:12:23.093Z,1003.37
2018-03-14T09:13:23.662Z,1003.57
2018-03-14T09:14:24.286Z,1003.44
2018-03-14T09:15:24.858Z,1003.39
2018-03-14T09:16:25.432Z,1003.30
2018-03-14T09:17:26.004Z,1003.48
2018-03-14T09:18:26.576Z,1003.40
2018-03-14T09:19:27.177Z,1003.30
2018-03-14T09:20:27.721Z,1003.30
2018-03-14T09:21:28.296Z,1003.41
2018-03-14T09:22:28.916Z,1003.44
2018-03-14T09:23:29.487Z,1003.42
2018-03-14T09:24:30.060Z,1003.27
2018-03-14T09:25:30.633Z,1003.28
2018-03-14T09:26:31.204Z,1003.28
2018-03-14T09:27:31.804Z,1003.19
2018-03-14T09:28:32.352Z,1003.14
2018-03-14T09:29:32.926Z,1003.06
2018-03-14T09:30:33.547Z,1003.03
2018-03-14T09:31:34.268Z,1003.06
2018-03-14T09:32:34.839Z,1002.81
2018-03-14T09:33:35.413Z,1002.89
2018-03-14T09:34:35.985Z,1002.68
2018-03-14T09:35:36.559Z,1002.76
2018-03-14T09:36:37.174Z,1002.62
2018-03-14T09:37:37.748Z,1002.65
2018-03-14T09:38:38.320Z,1002.46
2018-03-14T09:39:38.893Z,1002.65
2018-03-14T09:40:39.466Z,1002.45
2018-03-14T09:41:40.038Z,1002.48
2018-03-14T09:42:40.660Z,1002.37
2018-03-14T09:43:41.232Z,1002.39
2018-03-14T09:44:41.806Z,1002.25
2018-03-14T09:45:42.380Z,1002.21
2018-03-14T09:46:43.102Z,1002.13
2018-03-14T09:47:43.672Z,1002.09
2018-03-14T09:48:44.246Z,1002.07
2018-03-14T09:49:44.818Z,1002.10
2018-03-14T09:50:45.389Z,1001.95
2018-03-14T09:51:46.014Z,1002.17
2018-03-14T09:52:46.584Z,1001.94
2018-03-14T09:53:47.207Z,1002.16
2018-03-14T09:54:47.830Z,1002.07
2018-03-14T09:55:48.404Z,1002.01
2018-03-14T09:56:48.976Z,1002.09
2018-03-14T09:57:49.549Z,1001.98
2018-03-14T09:58:50.122Z,1002.17
2018-03-14T09:59:50.693Z,1002.10
2018-03-14T10:00:51.316Z,1001.99
2018-03-14T10:01:51.891Z,1002.00
2018-03-14T10:02:52.519Z,1002.12
2018-03-14T10:03:53.087Z,1002.13
2018-03-14T10:04:53.658Z,1001.95
2018-03-14T10:05:54.279Z,1002.02
2018-03-14T10:06:54.904Z,1002.00
2018-03-14T10:07:55.519Z,1002.07
2018-03-14T10:08:56.092Z,1002.02
2018-03-14T10:09:56.664Z,1002.22
2018-03-14T10:10:57.237Z,1002.13
2018-03-14T10:11:57.809Z,1002.12
2018-03-14T10:12:58.387Z,1002.07
2018-03-14T10:13:58.955Z,1002.00
2018-03-14T10:14:59.527Z,1002.00
2018-03-14T10:16:00.151Z,1001.82
2018-03-14T10:17:00.768Z,1001.82
2018-03-14T10:18:01.388Z,1001.90
2018-03-14T10:19:01.973Z,1001.62
2018-03-14T10:20:02.532Z,1001.54
2018-03-14T10:21:03.103Z,1001.50
2018-03-14T10:22:03.676Z,1001.42
2018-03-14T10:23:04.248Z,1001.31
2018-03-14T10:24:04.822Z,1001.61
2018-03-14T10:25:05.393Z,1001.62
2018-03-14T10:26:05.967Z,1001.64
2018-03-14T10:27:06.540Z,1001.64
2018-03-14T10:28:07.110Z,1001.56
2018-03-14T10:29:07.694Z,1001.46
2018-03-14T10:30:08.307Z,1001.41
2018-03-14T10:31:08.880Z,1001.32
2018-03-14T10:32:09.453Z,1001.24
2018-03-14T10:33:10.025Z,1001.30
2018-03-14T10:34:10.649Z,1001.32
2018-03-14T10:35:11.271Z,1001.40
2018-03-14T10:36:11.849Z,1001.36
2018-03-14T10:37:12.419Z,1001.30
2018-03-14T10:38:12.993Z,1001.27
2018-03-14T10:39:13.565Z,1001.11
2018-03-14T10:40:14.137Z,1001.27
2018-03-14T10:41:14.711Z,1001.20
2018-03-14T10:42:15.283Z,1000.96
2018-03-14T10:43:15.855Z,1000.98
2018-03-14T10:44:16.430Z,1000.87
2018-03-14T10:45:17.003Z,1001.06
2018-03-14T10:46:17.575Z,1001.02
2018-03-14T10:47:18.148Z,1000.94
2018-03-14T10:48:18.717Z,1000.92
2018-03-14T10:49:19.343Z,1000.99
2018-03-14T10:50:20.007Z,1000.98
2018-03-14T10:51:20.620Z,1000.75
2018-03-14T10:52:21.242Z,1000.79
2018-03-14T10:53:21.815Z,1000.87
2018-03-14T10:54:22.386Z,1000.93
2018-03-14T10:55:23.009Z,1000.79
2018-03-14T10:56:23.583Z,1000.75
2018-03-14T10:57:24.195Z,1000.78
2018-03-14T10:58:24.768Z,1000.75
2018-03-14T10:59:25.342Z,1000.53
2018-03-14T11:00:25.915Z,1000.72
2018-03-14T11:01:26.489Z,1000.60
2018-03-14T11:02:27.061Z,1000.74
2018-03-14T11:03:27.633Z,1000.65
2018-03-14T11:04:28.208Z,1000.75
2018-03-14T11:05:28.780Z,1000.67
2018-03-14T11:06:29.402Z,1000.60
2018-03-14T11:07:30.025Z,1000.69
2018-03-14T11:08:30.597Z,1000.69
2018-03-14T11:09:31.169Z,1000.66
2018-03-14T11:10:31.792Z,1000.49
2018-03-14T11:11:32.367Z,1000.62
2018-03-14T11:12:32.982Z,1000.70
2018-03-14T11:13:33.553Z,1000.70
2018-03-14T11:14:34.127Z,1000.53
2018-03-14T11:15:34.748Z,1000.77
2018-03-14T11:16:35.271Z,1000.61
2018-03-14T11:17:35.843Z,1000.53
2018-03-14T11:18:36.415Z,1000.59
2018-03-14T11:19:36.987Z,1000.64
2018-03-14T11:20:37.559Z,1000.71
2018-03-14T11:21:38.145Z,1000.59
2018-03-14T11:22:38.743Z,1000.66
2018-03-14T11:23:39.315Z,1000.62
2018-03-14T11:24:40.040Z,1000.65
2018-03-14T11:25:40.659Z,1000.41
2018-03-14T11:26:41.234Z,1000.47
2018-03-14T11:27:41.857Z,1000.44
2018-03-14T11:28:42.430Z,1000.52
2018-03-14T11:29:43.003Z,1000.36
2018-03-14T11:30:43.576Z,1000.38
2018-03-14T11:31:44.148Z,1000.38
2018-03-14T11:32:44.720Z,1000.36
2018-03-14T11:33:45.293Z,1000.25
2018-03-14T11:34:45.862Z,1000.29
2018-03-14T11:35:46.436Z,1000.38
2018-03-14T11:36:47.008Z,1000.25
2018-03-14T11:37:47.578Z,1000.09
2018-03-14T11:38:48.153Z,1000.12
2018-03-14T11:39:48.723Z,1000.08
2018-03-14T11:40:49.344Z,1000.22
2018-03-14T11:41:49.916Z,1000.21
2018-03-14T11:42:50.642Z,1000.40
2018-03-14T11:43:51.213Z,1000.18
2018-03-14T11:44:51.786Z,1000.38
2018-03-14T11:45:52.508Z,1000.30
2018-03-14T11:46:53.080Z,1000.38
2018-03-14T11:47:53.654Z,1000.47
2018-03-14T11:48:54.225Z,1000.69
2018-03-14T11:49:54.798Z,1000.50
2018-03-14T11:50:55.371Z,1000.62
2018-03-14T11:51:55.944Z,1000.57
2018-03-14T11:52:56.516Z,1000.79
2018-03-14T11:53:57.088Z,1001.11
2018-03-14T11:54:57.659Z,1000.99
2018-03-14T11:55:58.233Z,1001.30
2018-03-14T11:56:58.804Z,1001.45
2018-03-14T11:57:59.380Z,1001.68
2018-03-14T11:58:59.950Z,1001.66
2018-03-14T12:00:00.573Z,1001.53
2018-03-14T12:01:01.146Z,1001.56
2018-03-14T12:02:01.718Z,1001.62
2018-03-14T12:03:02.289Z,1001.60
2018-03-14T12:04:03.013Z,1001.60
2018-03-14T12:05:03.587Z,1001.71
2018-03-14T12:06:04.210Z,1001.60
2018-03-14T12:07:04.781Z,1001.52
2018-03-14T12:08:05.355Z,1001.47
2018-03-14T12:09:05.968Z,1001.61
2018-03-14T12:10:06.557Z,1001.56
2018-03-14T12:11:07.112Z,1001.62
2018-03-14T12:12:07.684Z,1001.72